sensor_id;sensor_type;location;lat;lon;timestamp;P1;durP1;ratioP1;P2;durP2;ratioP2
79493;SDS011;68951;53.130;18.104;2024-03-06T00:00:03;24.00;;;11.50;;
79493;SDS011;68951;53.130;18.104;2024-03-06T00:02:36;19.90;;;10.60;;
79493;SDS011;68951;53.130;18.104;2024-03-06T00:05:04;23.20;;;10.00;;
79493;SDS011;68951;53.130;18.104;2024-03-06T00:07:34;22.80;;;11.30;;
79493;SDS011;68951;53.130;18.104;2024-03-06T00:10:00;20.10;;;10.70;;
79493;SDS011;68951;53.130;18.104;2024-03-06T00:12:27;21.20;;;10.70;;
79493;SDS011;68951;53.130;18.104;2024-03-06T00:14:54;19.30;;;10.10;;
79493;SDS011;68951;53.130;18.104;2024-03-06T00:17:21;21.70;;;10.60;;
79493;SDS011;68951;53.130;18.104;2024-03-06T00:19:48;19.70;;;10.70;;
79493;SDS011;68951;53.130;18.104;2024-03-06T00:22:14;23.10;;;10.70;;
79493;SDS011;68951;53.130;18.104;2024-03-06T00:24:41;21.20;;;10.20;;
79493;SDS011;68951;53.130;18.104;2024-03-06T00:27:08;21.40;;;10.70;;
79493;SDS011;68951;53.130;18.104;2024-03-06T00:29:36;18.70;;;8.80;;
79493;SDS011;68951;53.130;18.104;2024-03-06T00:32:04;21.90;;;10.80;;
79493;SDS011;68951;53.130;18.104;2024-03-06T00:34:31;20.00;;;10.60;;
79493;SDS011;68951;53.130;18.104;2024-03-06T00:36:58;21.20;;;10.50;;
79493;SDS011;68951;53.130;18.104;2024-03-06T00:39:25;19.50;;;9.70;;
79493;SDS011;68951;53.130;18.104;2024-03-06T00:41:53;21.50;;;10.60;;
79493;SDS011;68951;53.130;18.104;2024-03-06T00:44:20;18.70;;;9.30;;
79493;SDS011;68951;53.130;18.104;2024-03-06T00:46:47;23.50;;;11.00;;
79493;SDS011;68951;53.130;18.104;2024-03-06T00:49:13;20.70;;;9.70;;
79493;SDS011;68951;53.130;18.104;2024-03-06T00:51:40;21.10;;;9.90;;
79493;SDS011;68951;53.130;18.104;2024-03-06T00:54:07;21.60;;;10.30;;
79493;SDS011;68951;53.130;18.104;2024-03-06T00:56:40;22.00;;;10.50;;
79493;SDS011;68951;53.130;18.104;2024-03-06T00:59:07;23.60;;;10.00;;
79493;SDS011;68951;53.130;18.104;2024-03-06T01:01:34;21.40;;;10.40;;
79493;SDS011;68951;53.130;18.104;2024-03-06T01:04:01;24.10;;;10.10;;
79493;SDS011;68951;53.130;18.104;2024-03-06T01:06:29;20.20;;;9.70;;
79493;SDS011;68951;53.130;18.104;2024-03-06T01:08:56;21.90;;;10.40;;
79493;SDS011;68951;53.130;18.104;2024-03-06T01:11:25;19.60;;;9.90;;
79493;SDS011;68951;53.130;18.104;2024-03-06T01:13:53;20.20;;;10.10;;
79493;SDS011;68951;53.130;18.104;2024-03-06T01:16:20;18.90;;;8.90;;
79493;SDS011;68951;53.130;18.104;2024-03-06T01:18:47;15.60;;;7.50;;
79493;SDS011;68951;53.130;18.104;2024-03-06T01:21:14;18.80;;;9.70;;
79493;SDS011;68951;53.130;18.104;2024-03-06T01:23:41;18.90;;;9.20;;
79493;SDS011;68951;53.130;18.104;2024-03-06T01:26:10;18.10;;;10.60;;
79493;SDS011;68951;53.130;18.104;2024-03-06T01:28:39;18.80;;;10.10;;
79493;SDS011;68951;53.130;18.104;2024-03-06T01:31:06;18.20;;;9.40;;
79493;SDS011;68951;53.130;18.104;2024-03-06T01:33:33;18.00;;;9.10;;
79493;SDS011;68951;53.130;18.104;2024-03-06T01:36:00;20.80;;;9.40;;
79493;SDS011;68951;53.130;18.104;2024-03-06T01:38:27;23.10;;;10.70;;
79493;SDS011;68951;53.130;18.104;2024-03-06T01:40:54;22.70;;;11.10;;
79493;SDS011;68951;53.130;18.104;2024-03-06T01:43:23;19.10;;;9.50;;
79493;SDS011;68951;53.130;18.104;2024-03-06T01:45:52;20.20;;;10.00;;
79493;SDS011;68951;53.130;18.104;2024-03-06T01:48:25;20.20;;;10.30;;
79493;SDS011;68951;53.130;18.104;2024-03-06T01:50:56;18.70;;;10.10;;
79493;SDS011;68951;53.130;18.104;2024-03-06T01:53:27;20.40;;;10.40;;
79493;SDS011;68951;53.130;18.104;2024-03-06T01:55:57;19.60;;;10.60;;
79493;SDS011;68951;53.130;18.104;2024-03-06T01:58:24;19.70;;;9.60;;
79493;SDS011;68951;53.130;18.104;2024-03-06T02:00:52;22.10;;;10.20;;
79493;SDS011;68951;53.130;18.104;2024-03-06T02:03:19;23.30;;;12.60;;
79493;SDS011;68951;53.130;18.104;2024-03-06T02:05:50;22.50;;;10.90;;
79493;SDS011;68951;53.130;18.104;2024-03-06T02:08:18;22.70;;;10.30;;
79493;SDS011;68951;53.130;18.104;2024-03-06T02:10:45;19.80;;;10.50;;
79493;SDS011;68951;53.130;18.104;2024-03-06T02:13:13;18.50;;;10.20;;
79493;SDS011;68951;53.130;18.104;2024-03-06T02:15:40;20.10;;;10.40;;
79493;SDS011;68951;53.130;18.104;2024-03-06T02:18:08;20.10;;;9.90;;
79493;SDS011;68951;53.130;18.104;2024-03-06T02:20:38;18.40;;;10.20;;
79493;SDS011;68951;53.130;18.104;2024-03-06T02:23:06;21.00;;;10.20;;
79493;SDS011;68951;53.130;18.104;2024-03-06T02:25:33;18.30;;;9.80;;
79493;SDS011;68951;53.130;18.104;2024-03-06T02:28:00;15.30;;;8.40;;
79493;SDS011;68951;53.130;18.104;2024-03-06T02:30:27;13.30;;;7.20;;
79493;SDS011;68951;53.130;18.104;2024-03-06T02:32:58;15.90;;;8.50;;
79493;SDS011;68951;53.130;18.104;2024-03-06T02:35:24;18.60;;;9.20;;
79493;SDS011;68951;53.130;18.104;2024-03-06T02:37:51;18.00;;;9.80;;
79493;SDS011;68951;53.130;18.104;2024-03-06T02:40:18;19.30;;;11.00;;
79493;SDS011;68951;53.130;18.104;2024-03-06T02:42:45;19.00;;;9.90;;
79493;SDS011;68951;53.130;18.104;2024-03-06T02:45:12;17.80;;;10.10;;
79493;SDS011;68951;53.130;18.104;2024-03-06T02:47:39;18.40;;;9.70;;
79493;SDS011;68951;53.130;18.104;2024-03-06T02:50:06;21.70;;;10.80;;
79493;SDS011;68951;53.130;18.104;2024-03-06T02:52:34;20.00;;;10.80;;
79493;SDS011;68951;53.130;18.104;2024-03-06T02:55:01;22.40;;;10.30;;
79493;SDS011;68951;53.130;18.104;2024-03-06T02:57:31;19.40;;;9.90;;
79493;SDS011;68951;53.130;18.104;2024-03-06T02:59:58;19.60;;;10.20;;
79493;SDS011;68951;53.130;18.104;2024-03-06T03:02:26;20.90;;;11.00;;
79493;SDS011;68951;53.130;18.104;2024-03-06T03:04:54;19.80;;;10.10;;
79493;SDS011;68951;53.130;18.104;2024-03-06T03:07:21;20.90;;;9.90;;
79493;SDS011;68951;53.130;18.104;2024-03-06T03:09:48;21.10;;;10.10;;
79493;SDS011;68951;53.130;18.104;2024-03-06T03:12:14;18.20;;;10.40;;
79493;SDS011;68951;53.130;18.104;2024-03-06T03:14:42;19.20;;;10.20;;
79493;SDS011;68951;53.130;18.104;2024-03-06T03:17:09;18.70;;;9.80;;
79493;SDS011;68951;53.130;18.104;2024-03-06T03:19:36;20.30;;;9.50;;
79493;SDS011;68951;53.130;18.104;2024-03-06T03:22:06;21.80;;;10.30;;
79493;SDS011;68951;53.130;18.104;2024-03-06T03:24:34;19.60;;;10.30;;
79493;SDS011;68951;53.130;18.104;2024-03-06T03:27:01;20.10;;;10.10;;
79493;SDS011;68951;53.130;18.104;2024-03-06T03:29:28;21.00;;;10.40;;
79493;SDS011;68951;53.130;18.104;2024-03-06T03:31:56;18.50;;;10.50;;
79493;SDS011;68951;53.130;18.104;2024-03-06T03:34:23;18.70;;;9.20;;
79493;SDS011;68951;53.130;18.104;2024-03-06T03:36:50;19.80;;;9.60;;
79493;SDS011;68951;53.130;18.104;2024-03-06T03:39:16;19.20;;;10.00;;
79493;SDS011;68951;53.130;18.104;2024-03-06T03:41:48;20.40;;;10.40;;
79493;SDS011;68951;53.130;18.104;2024-03-06T03:44:16;18.40;;;9.80;;
79493;SDS011;68951;53.130;18.104;2024-03-06T03:46:47;19.90;;;10.10;;
79493;SDS011;68951;53.130;18.104;2024-03-06T03:49:14;20.70;;;10.80;;
79493;SDS011;68951;53.130;18.104;2024-03-06T03:51:41;19.50;;;10.00;;
79493;SDS011;68951;53.130;18.104;2024-03-06T03:54:08;22.70;;;11.40;;
79493;SDS011;68951;53.130;18.104;2024-03-06T03:56:35;20.10;;;10.80;;
79493;SDS011;68951;53.130;18.104;2024-03-06T03:59:02;19.30;;;11.30;;
79493;SDS011;68951;53.130;18.104;2024-03-06T04:01:29;20.90;;;10.90;;
79493;SDS011;68951;53.130;18.104;2024-03-06T04:03:56;19.30;;;10.90;;
79493;SDS011;68951;53.130;18.104;2024-03-06T04:06:23;23.30;;;11.50;;
79493;SDS011;68951;53.130;18.104;2024-03-06T04:08:50;22.40;;;11.80;;
79493;SDS011;68951;53.130;18.104;2024-03-06T04:11:17;22.90;;;10.90;;
79493;SDS011;68951;53.130;18.104;2024-03-06T04:13:44;23.40;;;11.30;;
79493;SDS011;68951;53.130;18.104;2024-03-06T04:16:16;21.50;;;11.10;;
79493;SDS011;68951;53.130;18.104;2024-03-06T04:18:44;25.20;;;12.00;;
79493;SDS011;68951;53.130;18.104;2024-03-06T04:21:12;25.90;;;12.60;;
79493;SDS011;68951;53.130;18.104;2024-03-06T04:23:41;30.20;;;13.80;;
79493;SDS011;68951;53.130;18.104;2024-03-06T04:26:10;27.90;;;13.80;;
79493;SDS011;68951;53.130;18.104;2024-03-06T04:28:37;29.30;;;13.20;;
79493;SDS011;68951;53.130;18.104;2024-03-06T04:31:04;26.30;;;12.50;;
79493;SDS011;68951;53.130;18.104;2024-03-06T04:33:32;26.90;;;13.50;;
79493;SDS011;68951;53.130;18.104;2024-03-06T04:36:01;25.60;;;12.60;;
79493;SDS011;68951;53.130;18.104;2024-03-06T04:38:29;28.20;;;13.20;;
79493;SDS011;68951;53.130;18.104;2024-03-06T04:40:56;28.60;;;13.60;;
79493;SDS011;68951;53.130;18.104;2024-03-06T04:43:23;28.80;;;14.40;;
79493;SDS011;68951;53.130;18.104;2024-03-06T04:45:50;26.70;;;13.60;;
79493;SDS011;68951;53.130;18.104;2024-03-06T04:48:17;30.00;;;15.00;;
79493;SDS011;68951;53.130;18.104;2024-03-06T04:50:44;31.30;;;13.90;;
79493;SDS011;68951;53.130;18.104;2024-03-06T04:53:11;30.90;;;14.90;;
79493;SDS011;68951;53.130;18.104;2024-03-06T04:55:38;29.70;;;14.70;;
79493;SDS011;68951;53.130;18.104;2024-03-06T04:58:05;31.40;;;14.40;;
79493;SDS011;68951;53.130;18.104;2024-03-06T05:00:32;32.70;;;14.00;;
79493;SDS011;68951;53.130;18.104;2024-03-06T05:02:59;30.00;;;14.40;;
79493;SDS011;68951;53.130;18.104;2024-03-06T05:05:27;34.10;;;14.80;;
79493;SDS011;68951;53.130;18.104;2024-03-06T05:07:55;35.30;;;14.90;;
79493;SDS011;68951;53.130;18.104;2024-03-06T05:10:23;34.00;;;15.20;;
79493;SDS011;68951;53.130;18.104;2024-03-06T05:12:50;34.40;;;15.70;;
79493;SDS011;68951;53.130;18.104;2024-03-06T05:15:17;35.80;;;16.00;;
79493;SDS011;68951;53.130;18.104;2024-03-06T05:17:45;37.40;;;15.90;;
79493;SDS011;68951;53.130;18.104;2024-03-06T05:20:12;32.60;;;15.30;;
79493;SDS011;68951;53.130;18.104;2024-03-06T05:22:39;36.00;;;16.30;;
79493;SDS011;68951;53.130;18.104;2024-03-06T05:25:06;34.60;;;15.40;;
79493;SDS011;68951;53.130;18.104;2024-03-06T05:27:33;34.20;;;15.20;;
79493;SDS011;68951;53.130;18.104;2024-03-06T05:30:00;38.30;;;16.70;;
79493;SDS011;68951;53.130;18.104;2024-03-06T05:32:26;35.40;;;16.20;;
79493;SDS011;68951;53.130;18.104;2024-03-06T05:34:53;31.40;;;13.90;;
79493;SDS011;68951;53.130;18.104;2024-03-06T05:37:20;35.70;;;15.30;;
79493;SDS011;68951;53.130;18.104;2024-03-06T05:39:47;35.50;;;15.30;;
79493;SDS011;68951;53.130;18.104;2024-03-06T05:42:14;30.60;;;13.00;;
79493;SDS011;68951;53.130;18.104;2024-03-06T05:44:42;39.80;;;17.80;;
79493;SDS011;68951;53.130;18.104;2024-03-06T05:47:08;43.60;;;17.90;;
79493;SDS011;68951;53.130;18.104;2024-03-06T05:49:35;39.40;;;16.70;;
79493;SDS011;68951;53.130;18.104;2024-03-06T05:52:02;38.70;;;16.40;;
79493;SDS011;68951;53.130;18.104;2024-03-06T05:54:29;39.30;;;15.90;;
79493;SDS011;68951;53.130;18.104;2024-03-06T05:56:59;43.30;;;18.10;;
79493;SDS011;68951;53.130;18.104;2024-03-06T05:59:26;45.80;;;19.80;;
79493;SDS011;68951;53.130;18.104;2024-03-06T06:01:53;40.70;;;18.00;;
79493;SDS011;68951;53.130;18.104;2024-03-06T06:04:20;44.10;;;18.30;;
79493;SDS011;68951;53.130;18.104;2024-03-06T06:06:46;43.00;;;17.80;;
79493;SDS011;68951;53.130;18.104;2024-03-06T06:09:13;44.80;;;18.50;;
79493;SDS011;68951;53.130;18.104;2024-03-06T06:11:43;44.40;;;19.30;;
79493;SDS011;68951;53.130;18.104;2024-03-06T06:14:10;40.90;;;18.10;;
79493;SDS011;68951;53.130;18.104;2024-03-06T06:16:39;43.40;;;20.10;;
79493;SDS011;68951;53.130;18.104;2024-03-06T06:19:09;39.40;;;18.10;;
79493;SDS011;68951;53.130;18.104;2024-03-06T06:21:36;42.10;;;18.50;;
79493;SDS011;68951;53.130;18.104;2024-03-06T06:24:04;43.50;;;18.80;;
79493;SDS011;68951;53.130;18.104;2024-03-06T06:26:31;32.30;;;16.10;;
79493;SDS011;68951;53.130;18.104;2024-03-06T06:28:59;41.10;;;19.60;;
79493;SDS011;68951;53.130;18.104;2024-03-06T06:31:26;38.50;;;18.10;;
79493;SDS011;68951;53.130;18.104;2024-03-06T06:33:53;37.40;;;18.70;;
79493;SDS011;68951;53.130;18.104;2024-03-06T06:36:20;26.50;;;12.50;;
79493;SDS011;68951;53.130;18.104;2024-03-06T06:38:48;29.50;;;14.60;;
79493;SDS011;68951;53.130;18.104;2024-03-06T06:41:16;33.00;;;15.80;;
79493;SDS011;68951;53.130;18.104;2024-03-06T06:43:43;30.30;;;14.90;;
79493;SDS011;68951;53.130;18.104;2024-03-06T06:46:10;32.80;;;14.90;;
79493;SDS011;68951;53.130;18.104;2024-03-06T06:48:38;33.20;;;15.50;;
79493;SDS011;68951;53.130;18.104;2024-03-06T06:51:05;27.70;;;14.30;;
79493;SDS011;68951;53.130;18.104;2024-03-06T06:53:31;31.40;;;15.60;;
79493;SDS011;68951;53.130;18.104;2024-03-06T06:55:58;25.50;;;13.60;;
79493;SDS011;68951;53.130;18.104;2024-03-06T06:58:25;29.90;;;13.70;;
79493;SDS011;68951;53.130;18.104;2024-03-06T07:00:53;29.90;;;15.00;;
79493;SDS011;68951;53.130;18.104;2024-03-06T07:03:20;24.10;;;13.20;;
79493;SDS011;68951;53.130;18.104;2024-03-06T07:05:50;28.20;;;14.60;;
79493;SDS011;68951;53.130;18.104;2024-03-06T07:08:17;31.30;;;13.20;;
79493;SDS011;68951;53.130;18.104;2024-03-06T07:10:45;22.60;;;11.70;;
79493;SDS011;68951;53.130;18.104;2024-03-06T07:13:12;27.90;;;14.00;;
79493;SDS011;68951;53.130;18.104;2024-03-06T07:15:38;29.90;;;14.30;;
79493;SDS011;68951;53.130;18.104;2024-03-06T07:18:06;34.00;;;16.00;;
79493;SDS011;68951;53.130;18.104;2024-03-06T07:20:33;28.70;;;15.60;;
79493;SDS011;68951;53.130;18.104;2024-03-06T07:23:00;31.60;;;15.60;;
79493;SDS011;68951;53.130;18.104;2024-03-06T07:25:27;30.80;;;14.50;;
79493;SDS011;68951;53.130;18.104;2024-03-06T07:27:54;31.10;;;15.30;;
79493;SDS011;68951;53.130;18.104;2024-03-06T07:30:20;23.90;;;11.60;;
79493;SDS011;68951;53.130;18.104;2024-03-06T07:32:48;25.10;;;12.70;;
79493;SDS011;68951;53.130;18.104;2024-03-06T07:35:15;27.00;;;13.40;;
79493;SDS011;68951;53.130;18.104;2024-03-06T07:37:44;29.00;;;13.30;;
79493;SDS011;68951;53.130;18.104;2024-03-06T07:40:11;25.40;;;12.70;;
79493;SDS011;68951;53.130;18.104;2024-03-06T07:42:38;25.90;;;13.40;;
79493;SDS011;68951;53.130;18.104;2024-03-06T07:45:05;27.50;;;13.90;;
79493;SDS011;68951;53.130;18.104;2024-03-06T07:47:35;24.80;;;12.30;;
79493;SDS011;68951;53.130;18.104;2024-03-06T07:50:05;26.80;;;14.30;;
79493;SDS011;68951;53.130;18.104;2024-03-06T07:52:36;24.90;;;11.40;;
79493;SDS011;68951;53.130;18.104;2024-03-06T07:55:05;24.80;;;12.50;;
79493;SDS011;68951;53.130;18.104;2024-03-06T07:57:32;20.60;;;10.80;;
79493;SDS011;68951;53.130;18.104;2024-03-06T07:59:58;32.00;;;17.10;;
79493;SDS011;68951;53.130;18.104;2024-03-06T08:02:23;24.90;;;11.80;;
79493;SDS011;68951;53.130;18.104;2024-03-06T08:04:49;23.80;;;12.90;;
79493;SDS011;68951;53.130;18.104;2024-03-06T08:07:15;24.10;;;13.50;;
79493;SDS011;68951;53.130;18.104;2024-03-06T08:09:41;24.80;;;13.70;;
79493;SDS011;68951;53.130;18.104;2024-03-06T08:12:08;29.20;;;13.80;;
79493;SDS011;68951;53.130;18.104;2024-03-06T08:14:34;25.00;;;12.80;;
79493;SDS011;68951;53.130;18.104;2024-03-06T08:17:00;27.00;;;15.50;;
79493;SDS011;68951;53.130;18.104;2024-03-06T08:19:26;29.20;;;15.90;;
79493;SDS011;68951;53.130;18.104;2024-03-06T08:21:52;25.50;;;14.60;;
79493;SDS011;68951;53.130;18.104;2024-03-06T08:24:17;24.90;;;13.00;;
79493;SDS011;68951;53.130;18.104;2024-03-06T08:26:43;24.90;;;13.90;;
79493;SDS011;68951;53.130;18.104;2024-03-06T08:29:09;24.20;;;12.30;;
79493;SDS011;68951;53.130;18.104;2024-03-06T08:31:35;20.30;;;11.10;;
79493;SDS011;68951;53.130;18.104;2024-03-06T08:34:00;22.90;;;12.40;;
79493;SDS011;68951;53.130;18.104;2024-03-06T08:36:26;20.70;;;10.50;;
79493;SDS011;68951;53.130;18.104;2024-03-06T08:38:52;19.00;;;10.90;;
79493;SDS011;68951;53.130;18.104;2024-03-06T08:41:18;24.80;;;11.30;;
79493;SDS011;68951;53.130;18.104;2024-03-06T08:43:44;20.40;;;10.20;;
79493;SDS011;68951;53.130;18.104;2024-03-06T08:46:10;18.40;;;9.80;;
79493;SDS011;68951;53.130;18.104;2024-03-06T08:48:36;20.50;;;11.10;;
79493;SDS011;68951;53.130;18.104;2024-03-06T08:51:01;17.50;;;9.40;;
79493;SDS011;68951;53.130;18.104;2024-03-06T08:53:28;14.80;;;8.10;;
79493;SDS011;68951;53.130;18.104;2024-03-06T08:55:54;17.50;;;9.80;;
79493;SDS011;68951;53.130;18.104;2024-03-06T08:58:20;16.30;;;9.20;;
79493;SDS011;68951;53.130;18.104;2024-03-06T09:00:46;18.80;;;10.00;;
79493;SDS011;68951;53.130;18.104;2024-03-06T09:03:14;16.80;;;9.10;;
79493;SDS011;68951;53.130;18.104;2024-03-06T09:05:41;15.10;;;8.00;;
79493;SDS011;68951;53.130;18.104;2024-03-06T09:08:06;15.90;;;8.30;;
79493;SDS011;68951;53.130;18.104;2024-03-06T09:10:33;18.90;;;9.70;;
79493;SDS011;68951;53.130;18.104;2024-03-06T09:12:59;19.80;;;9.70;;
79493;SDS011;68951;53.130;18.104;2024-03-06T09:15:25;18.00;;;8.80;;
79493;SDS011;68951;53.130;18.104;2024-03-06T09:17:51;14.10;;;7.40;;
79493;SDS011;68951;53.130;18.104;2024-03-06T09:20:17;13.60;;;8.00;;
79493;SDS011;68951;53.130;18.104;2024-03-06T09:22:43;17.80;;;9.60;;
79493;SDS011;68951;53.130;18.104;2024-03-06T09:25:09;18.90;;;9.80;;
79493;SDS011;68951;53.130;18.104;2024-03-06T09:27:37;16.30;;;9.40;;
79493;SDS011;68951;53.130;18.104;2024-03-06T09:30:03;14.40;;;8.30;;
79493;SDS011;68951;53.130;18.104;2024-03-06T09:32:30;17.50;;;8.90;;
79493;SDS011;68951;53.130;18.104;2024-03-06T09:34:56;17.30;;;9.30;;
79493;SDS011;68951;53.130;18.104;2024-03-06T09:37:21;17.00;;;8.50;;
79493;SDS011;68951;53.130;18.104;2024-03-06T09:39:47;17.80;;;10.10;;
79493;SDS011;68951;53.130;18.104;2024-03-06T09:42:14;17.30;;;9.40;;
79493;SDS011;68951;53.130;18.104;2024-03-06T09:44:41;16.30;;;8.90;;
79493;SDS011;68951;53.130;18.104;2024-03-06T09:47:08;18.60;;;10.20;;
79493;SDS011;68951;53.130;18.104;2024-03-06T09:49:40;17.20;;;9.50;;
79493;SDS011;68951;53.130;18.104;2024-03-06T09:52:06;18.30;;;8.60;;
79493;SDS011;68951;53.130;18.104;2024-03-06T09:54:33;15.50;;;7.80;;
79493;SDS011;68951;53.130;18.104;2024-03-06T09:56:59;18.20;;;9.50;;
79493;SDS011;68951;53.130;18.104;2024-03-06T09:59:25;18.00;;;9.20;;
79493;SDS011;68951;53.130;18.104;2024-03-06T10:01:55;16.80;;;8.90;;
79493;SDS011;68951;53.130;18.104;2024-03-06T10:04:24;19.10;;;9.60;;
79493;SDS011;68951;53.130;18.104;2024-03-06T10:06:59;19.50;;;10.10;;
79493;SDS011;68951;53.130;18.104;2024-03-06T10:09:27;20.50;;;10.90;;
79493;SDS011;68951;53.130;18.104;2024-03-06T10:11:53;19.90;;;10.60;;
79493;SDS011;68951;53.130;18.104;2024-03-06T10:14:21;21.40;;;11.10;;
79493;SDS011;68951;53.130;18.104;2024-03-06T10:17:00;18.70;;;10.10;;
79493;SDS011;68951;53.130;18.104;2024-03-06T10:19:28;17.70;;;8.80;;
79493;SDS011;68951;53.130;18.104;2024-03-06T10:21:56;18.00;;;9.80;;
79493;SDS011;68951;53.130;18.104;2024-03-06T10:24:26;19.50;;;9.40;;
79493;SDS011;68951;53.130;18.104;2024-03-06T10:26:58;19.50;;;9.90;;
79493;SDS011;68951;53.130;18.104;2024-03-06T10:29:28;18.00;;;8.00;;
79493;SDS011;68951;53.130;18.104;2024-03-06T10:31:58;16.20;;;8.90;;
79493;SDS011;68951;53.130;18.104;2024-03-06T10:34:25;17.00;;;9.20;;
79493;SDS011;68951;53.130;18.104;2024-03-06T10:37:02;13.30;;;7.10;;
79493;SDS011;68951;53.130;18.104;2024-03-06T10:39:42;20.50;;;9.50;;
79493;SDS011;68951;53.130;18.104;2024-03-06T10:42:13;15.70;;;8.20;;
79493;SDS011;68951;53.130;18.104;2024-03-06T10:44:46;18.50;;;9.70;;
79493;SDS011;68951;53.130;18.104;2024-03-06T10:47:28;18.00;;;9.80;;
79493;SDS011;68951;53.130;18.104;2024-03-06T10:49:55;18.40;;;8.90;;
79493;SDS011;68951;53.130;18.104;2024-03-06T10:52:27;17.50;;;9.20;;
79493;SDS011;68951;53.130;18.104;2024-03-06T10:54:55;18.30;;;10.00;;
79493;SDS011;68951;53.130;18.104;2024-03-06T10:57:25;17.30;;;9.70;;
79493;SDS011;68951;53.130;18.104;2024-03-06T10:59:52;21.50;;;10.20;;
79493;SDS011;68951;53.130;18.104;2024-03-06T11:02:19;20.20;;;10.20;;
79493;SDS011;68951;53.130;18.104;2024-03-06T11:04:48;17.20;;;8.50;;
79493;SDS011;68951;53.130;18.104;2024-03-06T11:07:14;21.50;;;9.80;;
79493;SDS011;68951;53.130;18.104;2024-03-06T11:09:40;17.90;;;9.80;;
79493;SDS011;68951;53.130;18.104;2024-03-06T11:12:06;20.40;;;10.20;;
79493;SDS011;68951;53.130;18.104;2024-03-06T11:14:35;17.50;;;9.70;;
79493;SDS011;68951;53.130;18.104;2024-03-06T11:17:10;20.00;;;10.70;;
79493;SDS011;68951;53.130;18.104;2024-03-06T11:28:20;17.50;;;9.50;;
79493;SDS011;68951;53.130;18.104;2024-03-06T11:30:48;15.20;;;8.10;;
79493;SDS011;68951;53.130;18.104;2024-03-06T11:33:21;18.20;;;8.90;;
79493;SDS011;68951;53.130;18.104;2024-03-06T11:36:26;14.50;;;7.70;;
79493;SDS011;68951;53.130;18.104;2024-03-06T11:38:59;15.50;;;7.20;;
79493;SDS011;68951;53.130;18.104;2024-03-06T11:41:28;11.00;;;5.60;;
79493;SDS011;68951;53.130;18.104;2024-03-06T11:43:56;17.20;;;9.00;;
79493;SDS011;68951;53.130;18.104;2024-03-06T11:47:00;18.10;;;9.10;;
79493;SDS011;68951;53.130;18.104;2024-03-06T11:49:30;16.50;;;8.00;;
79493;SDS011;68951;53.130;18.104;2024-03-06T11:52:01;14.90;;;8.40;;
79493;SDS011;68951;53.130;18.104;2024-03-06T11:54:32;15.70;;;9.10;;
79493;SDS011;68951;53.130;18.104;2024-03-06T11:57:00;18.40;;;8.60;;
79493;SDS011;68951;53.130;18.104;2024-03-06T11:59:32;15.20;;;9.20;;
79493;SDS011;68951;53.130;18.104;2024-03-06T12:02:03;17.70;;;8.90;;
79493;SDS011;68951;53.130;18.104;2024-03-06T12:04:31;16.10;;;8.10;;
79493;SDS011;68951;53.130;18.104;2024-03-06T12:07:03;17.00;;;8.80;;
79493;SDS011;68951;53.130;18.104;2024-03-06T12:09:37;16.00;;;8.80;;
79493;SDS011;68951;53.130;18.104;2024-03-06T12:12:06;18.10;;;9.70;;
79493;SDS011;68951;53.130;18.104;2024-03-06T12:14:35;14.40;;;8.30;;
79493;SDS011;68951;53.130;18.104;2024-03-06T12:17:02;14.00;;;7.80;;
79493;SDS011;68951;53.130;18.104;2024-03-06T12:19:34;16.40;;;9.10;;
79493;SDS011;68951;53.130;18.104;2024-03-06T12:22:04;18.00;;;9.60;;
79493;SDS011;68951;53.130;18.104;2024-03-06T12:24:31;17.70;;;9.00;;
79493;SDS011;68951;53.130;18.104;2024-03-06T12:27:04;15.30;;;8.70;;
79493;SDS011;68951;53.130;18.104;2024-03-06T12:29:34;16.20;;;9.30;;
79493;SDS011;68951;53.130;18.104;2024-03-06T12:32:04;13.20;;;7.60;;
79493;SDS011;68951;53.130;18.104;2024-03-06T12:34:30;18.70;;;9.70;;
79493;SDS011;68951;53.130;18.104;2024-03-06T12:36:56;14.50;;;8.00;;
79493;SDS011;68951;53.130;18.104;2024-03-06T12:39:33;15.30;;;8.70;;
79493;SDS011;68951;53.130;18.104;2024-03-06T12:41:59;14.80;;;7.40;;
79493;SDS011;68951;53.130;18.104;2024-03-06T12:44:25;16.00;;;8.70;;
79493;SDS011;68951;53.130;18.104;2024-03-06T12:46:50;13.80;;;7.00;;
79493;SDS011;68951;53.130;18.104;2024-03-06T12:49:16;12.00;;;6.40;;
79493;SDS011;68951;53.130;18.104;2024-03-06T12:51:45;15.10;;;7.70;;
79493;SDS011;68951;53.130;18.104;2024-03-06T12:54:11;13.80;;;8.60;;
79493;SDS011;68951;53.130;18.104;2024-03-06T12:56:37;13.80;;;7.40;;
79493;SDS011;68951;53.130;18.104;2024-03-06T12:59:02;15.80;;;8.20;;
79493;SDS011;68951;53.130;18.104;2024-03-06T13:01:30;17.20;;;8.50;;
79493;SDS011;68951;53.130;18.104;2024-03-06T13:03:56;16.80;;;8.60;;
79493;SDS011;68951;53.130;18.104;2024-03-06T13:06:22;14.20;;;7.10;;
79493;SDS011;68951;53.130;18.104;2024-03-06T13:08:48;15.70;;;7.90;;
79493;SDS011;68951;53.130;18.104;2024-03-06T13:11:14;12.10;;;6.70;;
79493;SDS011;68951;53.130;18.104;2024-03-06T13:13:39;12.80;;;6.90;;
79493;SDS011;68951;53.130;18.104;2024-03-06T13:16:05;17.20;;;8.20;;
79493;SDS011;68951;53.130;18.104;2024-03-06T13:18:31;12.30;;;6.00;;
79493;SDS011;68951;53.130;18.104;2024-03-06T13:20:57;16.20;;;7.10;;
79493;SDS011;68951;53.130;18.104;2024-03-06T13:23:24;13.50;;;7.10;;
79493;SDS011;68951;53.130;18.104;2024-03-06T13:25:50;13.00;;;7.30;;
79493;SDS011;68951;53.130;18.104;2024-03-06T13:28:16;12.90;;;7.30;;
79493;SDS011;68951;53.130;18.104;2024-03-06T13:30:41;12.70;;;6.90;;
79493;SDS011;68951;53.130;18.104;2024-03-06T13:33:07;17.50;;;7.50;;
79493;SDS011;68951;53.130;18.104;2024-03-06T13:35:33;16.40;;;6.90;;
79493;SDS011;68951;53.130;18.104;2024-03-06T13:37:59;13.10;;;6.30;;
79493;SDS011;68951;53.130;18.104;2024-03-06T13:40:25;14.10;;;6.40;;
79493;SDS011;68951;53.130;18.104;2024-03-06T13:42:52;12.10;;;6.60;;
79493;SDS011;68951;53.130;18.104;2024-03-06T13:45:20;19.40;;;7.90;;
79493;SDS011;68951;53.130;18.104;2024-03-06T13:47:46;14.20;;;6.90;;
79493;SDS011;68951;53.130;18.104;2024-03-06T13:50:13;13.90;;;6.50;;
79493;SDS011;68951;53.130;18.104;2024-03-06T13:52:41;11.60;;;6.00;;
79493;SDS011;68951;53.130;18.104;2024-03-06T13:55:08;12.20;;;5.90;;
79493;SDS011;68951;53.130;18.104;2024-03-06T13:57:36;13.40;;;6.00;;
79493;SDS011;68951;53.130;18.104;2024-03-06T14:00:07;14.00;;;7.10;;
79493;SDS011;68951;53.130;18.104;2024-03-06T14:02:44;14.80;;;6.90;;
79493;SDS011;68951;53.130;18.104;2024-03-06T14:05:14;13.00;;;6.00;;
79493;SDS011;68951;53.130;18.104;2024-03-06T14:07:40;12.80;;;6.30;;
79493;SDS011;68951;53.130;18.104;2024-03-06T14:10:07;10.80;;;4.80;;
79493;SDS011;68951;53.130;18.104;2024-03-06T14:12:37;10.90;;;4.60;;
79493;SDS011;68951;53.130;18.104;2024-03-06T14:15:05;10.80;;;5.60;;
79493;SDS011;68951;53.130;18.104;2024-03-06T14:17:38;10.90;;;5.50;;
79493;SDS011;68951;53.130;18.104;2024-03-06T14:20:05;12.80;;;5.70;;
79493;SDS011;68951;53.130;18.104;2024-03-06T14:22:31;11.60;;;5.90;;
79493;SDS011;68951;53.130;18.104;2024-03-06T14:24:57;14.40;;;6.20;;